sensor_id;sensor_type;location;lat;lon;timestamp;P1;durP1;ratioP1;P2;durP2;ratioP2
32228;SDS011;18717;48.034;11.186;2023-03-14T00:01:08;8.20;;;7.90;;
32228;SDS011;18717;48.034;11.186;2023-03-14T00:03:36;8.40;;;7.50;;
32228;SDS011;18717;48.034;11.186;2023-03-14T00:06:05;8.85;;;8.35;;
32228;SDS011;18717;48.034;11.186;2023-03-14T00:08:33;8.02;;;7.72;;
32228;SDS011;18717;48.034;11.186;2023-03-14T00:11:04;7.70;;;7.40;;
32228;SDS011;18717;48.034;11.186;2023-03-14T00:13:34;8.10;;;7.80;;
32228;SDS011;18717;48.034;11.186;2023-03-14T00:16:03;8.00;;;7.70;;
32228;SDS011;18717;48.034;11.186;2023-03-14T00:18:31;8.10;;;7.80;;
32228;SDS011;18717;48.034;11.186;2023-03-14T00:20:59;8.52;;;8.23;;
32228;SDS011;18717;48.034;11.186;2023-03-14T00:23:28;8.13;;;7.82;;
32228;SDS011;18717;48.034;11.186;2023-03-14T00:25:58;8.40;;;8.10;;
32228;SDS011;18717;48.034;11.186;2023-03-14T00:28:26;8.70;;;8.30;;
32228;SDS011;18717;48.034;11.186;2023-03-14T00:30:55;8.75;;;8.40;;
32228;SDS011;18717;48.034;11.186;2023-03-14T00:33:23;7.90;;;7.60;;
32228;SDS011;18717;48.034;11.186;2023-03-14T00:35:52;8.38;;;8.07;;
32228;SDS011;18717;48.034;11.186;2023-03-14T00:38:20;8.82;;;8.10;;
32228;SDS011;18717;48.034;11.186;2023-03-14T00:40:48;8.05;;;7.75;;
32228;SDS011;18717;48.034;11.186;2023-03-14T00:43:16;8.10;;;7.80;;
32228;SDS011;18717;48.034;11.186;2023-03-14T00:45:44;8.80;;;8.50;;
32228;SDS011;18717;48.034;11.186;2023-03-14T00:48:13;8.85;;;8.45;;
32228;SDS011;18717;48.034;11.186;2023-03-14T00:50:40;8.30;;;7.80;;
32228;SDS011;18717;48.034;11.186;2023-03-14T00:53:08;8.30;;;7.90;;
32228;SDS011;18717;48.034;11.186;2023-03-14T00:55:36;8.65;;;8.15;;
32228;SDS011;18717;48.034;11.186;2023-03-14T00:58:04;8.52;;;8.23;;
32228;SDS011;18717;48.034;11.186;2023-03-14T01:00:32;8.27;;;7.97;;
32228;SDS011;18717;48.034;11.186;2023-03-14T01:03:00;8.70;;;8.20;;
32228;SDS011;18717;48.034;11.186;2023-03-14T01:05:29;8.73;;;8.23;;
32228;SDS011;18717;48.034;11.186;2023-03-14T01:07:57;8.25;;;7.85;;
32228;SDS011;18717;48.034;11.186;2023-03-14T01:10:25;7.82;;;7.53;;
32228;SDS011;18717;48.034;11.186;2023-03-14T01:12:52;8.23;;;7.93;;
32228;SDS011;18717;48.034;11.186;2023-03-14T01:15:21;8.55;;;8.18;;
32228;SDS011;18717;48.034;11.186;2023-03-14T01:17:49;8.63;;;8.23;;
32228;SDS011;18717;48.034;11.186;2023-03-14T01:20:17;8.23;;;7.80;;
32228;SDS011;18717;48.034;11.186;2023-03-14T01:22:47;9.15;;;8.50;;
32228;SDS011;18717;48.034;11.186;2023-03-14T01:25:15;9.07;;;8.70;;
32228;SDS011;18717;48.034;11.186;2023-03-14T01:27:44;8.60;;;8.20;;
32228;SDS011;18717;48.034;11.186;2023-03-14T01:30:12;8.80;;;8.15;;
32228;SDS011;18717;48.034;11.186;2023-03-14T01:32:40;9.38;;;8.75;;
32228;SDS011;18717;48.034;11.186;2023-03-14T01:35:07;8.20;;;7.90;;
32228;SDS011;18717;48.034;11.186;2023-03-14T01:37:35;8.50;;;8.20;;
32228;SDS011;18717;48.034;11.186;2023-03-14T01:40:05;8.18;;;7.78;;
32228;SDS011;18717;48.034;11.186;2023-03-14T01:42:33;8.05;;;7.75;;
32228;SDS011;18717;48.034;11.186;2023-03-14T01:45:01;8.52;;;8.07;;
32228;SDS011;18717;48.034;11.186;2023-03-14T01:47:29;8.82;;;8.43;;
32228;SDS011;18717;48.034;11.186;2023-03-14T01:49:57;9.15;;;8.45;;
32228;SDS011;18717;48.034;11.186;2023-03-14T01:52:28;9.05;;;8.48;;
32228;SDS011;18717;48.034;11.186;2023-03-14T01:54:59;8.05;;;7.75;;
32228;SDS011;18717;48.034;11.186;2023-03-14T01:57:31;8.25;;;7.88;;
32228;SDS011;18717;48.034;11.186;2023-03-14T02:00:00;8.30;;;7.90;;
32228;SDS011;18717;48.034;11.186;2023-03-14T02:02:35;9.50;;;8.77;;
32228;SDS011;18717;48.034;11.186;2023-03-14T02:05:03;8.52;;;8.23;;
32228;SDS011;18717;48.034;11.186;2023-03-14T02:07:33;8.82;;;8.43;;
32228;SDS011;18717;48.034;11.186;2023-03-14T02:10:03;10.02;;;9.05;;
32228;SDS011;18717;48.034;11.186;2023-03-14T02:12:32;8.23;;;7.82;;
32228;SDS011;18717;48.034;11.186;2023-03-14T02:15:01;8.32;;;7.93;;
32228;SDS011;18717;48.034;11.186;2023-03-14T02:17:28;8.30;;;7.90;;
32228;SDS011;18717;48.034;11.186;2023-03-14T02:20:06;8.52;;;8.15;;
32228;SDS011;18717;48.034;11.186;2023-03-14T02:22:50;8.07;;;7.78;;
32228;SDS011;18717;48.034;11.186;2023-03-14T02:25:20;8.23;;;7.93;;
32228;SDS011;18717;48.034;11.186;2023-03-14T02:27:53;8.60;;;8.10;;
32228;SDS011;18717;48.034;11.186;2023-03-14T02:30:21;7.97;;;7.68;;
32228;SDS011;18717;48.034;11.186;2023-03-14T02:32:52;8.18;;;7.88;;
32228;SDS011;18717;48.034;11.186;2023-03-14T02:35:22;8.30;;;7.97;;
32228;SDS011;18717;48.034;11.186;2023-03-14T02:37:52;8.38;;;7.97;;
32228;SDS011;18717;48.034;11.186;2023-03-14T02:40:22;7.85;;;7.45;;
32228;SDS011;18717;48.034;11.186;2023-03-14T02:42:50;7.55;;;7.25;;
32228;SDS011;18717;48.034;11.186;2023-03-14T02:45:36;8.25;;;7.85;;
32228;SDS011;18717;48.034;11.186;2023-03-14T02:48:14;7.90;;;7.60;;
32228;SDS011;18717;48.034;11.186;2023-03-14T02:50:43;7.93;;;7.63;;
32228;SDS011;18717;48.034;11.186;2023-03-14T02:53:14;7.97;;;7.68;;
32228;SDS011;18717;48.034;11.186;2023-03-14T02:55:45;7.90;;;7.60;;
32228;SDS011;18717;48.034;11.186;2023-03-14T02:58:13;7.40;;;7.10;;
32228;SDS011;18717;48.034;11.186;2023-03-14T03:00:43;7.90;;;7.60;;
32228;SDS011;18717;48.034;11.186;2023-03-14T03:03:10;7.82;;;7.53;;
32228;SDS011;18717;48.034;11.186;2023-03-14T03:05:38;7.72;;;7.43;;
32228;SDS011;18717;48.034;11.186;2023-03-14T03:08:06;7.40;;;7.10;;
32228;SDS011;18717;48.034;11.186;2023-03-14T03:10:34;7.72;;;7.43;;
32228;SDS011;18717;48.034;11.186;2023-03-14T03:13:02;7.28;;;7.07;;
32228;SDS011;18717;48.034;11.186;2023-03-14T03:15:29;7.03;;;6.82;;
32228;SDS011;18717;48.034;11.186;2023-03-14T03:17:58;7.65;;;7.35;;
32228;SDS011;18717;48.034;11.186;2023-03-14T03:20:26;7.55;;;7.25;;
32228;SDS011;18717;48.034;11.186;2023-03-14T03:22:54;7.25;;;6.95;;
32228;SDS011;18717;48.034;11.186;2023-03-14T03:25:21;7.55;;;7.15;;
32228;SDS011;18717;48.034;11.186;2023-03-14T03:27:49;7.20;;;6.90;;
32228;SDS011;18717;48.034;11.186;2023-03-14T03:30:17;7.50;;;7.20;;
32228;SDS011;18717;48.034;11.186;2023-03-14T03:32:45;7.00;;;6.80;;
32228;SDS011;18717;48.034;11.186;2023-03-14T03:35:14;7.18;;;6.78;;
32228;SDS011;18717;48.034;11.186;2023-03-14T03:37:42;7.20;;;7.00;;
32228;SDS011;18717;48.034;11.186;2023-03-14T03:40:10;6.85;;;6.60;;
32228;SDS011;18717;48.034;11.186;2023-03-14T03:42:38;7.35;;;6.95;;
32228;SDS011;18717;48.034;11.186;2023-03-14T03:45:06;7.28;;;6.97;;
32228;SDS011;18717;48.034;11.186;2023-03-14T03:47:34;7.28;;;6.97;;
32228;SDS011;18717;48.034;11.186;2023-03-14T03:50:02;7.20;;;6.90;;
32228;SDS011;18717;48.034;11.186;2023-03-14T03:52:32;6.80;;;6.60;;
32228;SDS011;18717;48.034;11.186;2023-03-14T03:54:59;7.43;;;7.13;;
32228;SDS011;18717;48.034;11.186;2023-03-14T03:57:27;7.20;;;7.00;;
32228;SDS011;18717;48.034;11.186;2023-03-14T03:59:55;7.00;;;6.80;;
32228;SDS011;18717;48.034;11.186;2023-03-14T04:02:22;7.03;;;6.82;;
32228;SDS011;18717;48.034;11.186;2023-03-14T04:04:51;7.20;;;7.00;;
32228;SDS011;18717;48.034;11.186;2023-03-14T04:07:18;7.22;;;7.00;;
32228;SDS011;18717;48.034;11.186;2023-03-14T04:09:47;7.75;;;7.20;;
32228;SDS011;18717;48.034;11.186;2023-03-14T04:12:15;6.97;;;6.78;;
32228;SDS011;18717;48.034;11.186;2023-03-14T04:14:43;7.38;;;7.07;;
32228;SDS011;18717;48.034;11.186;2023-03-14T04:17:10;7.30;;;7.00;;
32228;SDS011;18717;48.034;11.186;2023-03-14T04:19:38;6.68;;;6.47;;
32228;SDS011;18717;48.034;11.186;2023-03-14T04:22:06;7.05;;;6.85;;
32228;SDS011;18717;48.034;11.186;2023-03-14T04:24:33;7.10;;;6.90;;
32228;SDS011;18717;48.034;11.186;2023-03-14T04:27:02;7.60;;;7.32;;
32228;SDS011;18717;48.034;11.186;2023-03-14T04:29:30;9.77;;;8.70;;
32228;SDS011;18717;48.034;11.186;2023-03-14T04:31:58;6.95;;;6.75;;
32228;SDS011;18717;48.034;11.186;2023-03-14T04:34:25;7.18;;;6.97;;
32228;SDS011;18717;48.034;11.186;2023-03-14T04:36:53;7.22;;;7.03;;
32228;SDS011;18717;48.034;11.186;2023-03-14T04:39:21;6.85;;;6.65;;
32228;SDS011;18717;48.034;11.186;2023-03-14T04:41:48;7.07;;;6.78;;
32228;SDS011;18717;48.034;11.186;2023-03-14T04:44:17;7.82;;;7.53;;
32228;SDS011;18717;48.034;11.186;2023-03-14T04:46:45;7.55;;;7.25;;
32228;SDS011;18717;48.034;11.186;2023-03-14T04:49:13;7.22;;;6.93;;
32228;SDS011;18717;48.034;11.186;2023-03-14T04:51:40;7.60;;;7.30;;
32228;SDS011;18717;48.034;11.186;2023-03-14T04:54:08;7.05;;;6.80;;
32228;SDS011;18717;48.034;11.186;2023-03-14T04:56:36;7.65;;;7.35;;
32228;SDS011;18717;48.034;11.186;2023-03-14T04:59:04;7.35;;;7.10;;
32228;SDS011;18717;48.034;11.186;2023-03-14T05:01:33;7.10;;;6.80;;
32228;SDS011;18717;48.034;11.186;2023-03-14T05:04:01;7.75;;;7.45;;
32228;SDS011;18717;48.034;11.186;2023-03-14T05:06:29;7.50;;;7.20;;
32228;SDS011;18717;48.034;11.186;2023-03-14T05:08:56;7.38;;;7.13;;
32228;SDS011;18717;48.034;11.186;2023-03-14T05:11:24;7.40;;;6.95;;
32228;SDS011;18717;48.034;11.186;2023-03-14T05:13:52;7.20;;;7.00;;
32228;SDS011;18717;48.034;11.186;2023-03-14T05:16:20;7.28;;;6.97;;
32228;SDS011;18717;48.034;11.186;2023-03-14T05:18:49;6.93;;;6.63;;
32228;SDS011;18717;48.034;11.186;2023-03-14T05:21:17;7.80;;;7.50;;
32228;SDS011;18717;48.034;11.186;2023-03-14T05:23:45;6.95;;;6.75;;
32228;SDS011;18717;48.034;11.186;2023-03-14T05:26:12;7.10;;;6.90;;
32228;SDS011;18717;48.034;11.186;2023-03-14T05:28:42;7.50;;;7.20;;
32228;SDS011;18717;48.034;11.186;2023-03-14T05:31:13;7.32;;;7.03;;
32228;SDS011;18717;48.034;11.186;2023-03-14T05:33:40;7.13;;;6.82;;
32228;SDS011;18717;48.034;11.186;2023-03-14T05:36:09;6.90;;;6.70;;
32228;SDS011;18717;48.034;11.186;2023-03-14T05:38:37;6.68;;;6.47;;
32228;SDS011;18717;48.034;11.186;2023-03-14T05:41:05;7.68;;;7.38;;
32228;SDS011;18717;48.034;11.186;2023-03-14T05:43:33;7.57;;;7.28;;
32228;SDS011;18717;48.034;11.186;2023-03-14T05:46:01;7.30;;;7.00;;
32228;SDS011;18717;48.034;11.186;2023-03-14T05:48:28;7.13;;;6.93;;
32228;SDS011;18717;48.034;11.186;2023-03-14T05:50:56;6.95;;;6.65;;
32228;SDS011;18717;48.034;11.186;2023-03-14T05:53:26;6.82;;;6.63;;
32228;SDS011;18717;48.034;11.186;2023-03-14T05:55:55;7.50;;;7.20;;
32228;SDS011;18717;48.034;11.186;2023-03-14T05:58:23;7.57;;;7.18;;
32228;SDS011;18717;48.034;11.186;2023-03-14T06:00:51;7.18;;;6.88;;
32228;SDS011;18717;48.034;11.186;2023-03-14T06:03:19;7.47;;;7.18;;
32228;SDS011;18717;48.034;11.186;2023-03-14T06:05:48;7.75;;;7.38;;
32228;SDS011;18717;48.034;11.186;2023-03-14T06:08:17;7.15;;;6.95;;
32228;SDS011;18717;48.034;11.186;2023-03-14T06:10:46;7.20;;;6.93;;
32228;SDS011;18717;48.034;11.186;2023-03-14T06:13:13;7.03;;;6.82;;
32228;SDS011;18717;48.034;11.186;2023-03-14T06:15:41;7.68;;;7.28;;
32228;SDS011;18717;48.034;11.186;2023-03-14T06:18:09;7.00;;;6.70;;
32228;SDS011;18717;48.034;11.186;2023-03-14T06:20:38;7.03;;;6.82;;
32228;SDS011;18717;48.034;11.186;2023-03-14T06:23:06;6.63;;;6.43;;
32228;SDS011;18717;48.034;11.186;2023-03-14T06:25:34;7.57;;;7.28;;
32228;SDS011;18717;48.034;11.186;2023-03-14T06:28:04;7.30;;;7.00;;
32228;SDS011;18717;48.034;11.186;2023-03-14T06:30:31;7.20;;;6.90;;
32228;SDS011;18717;48.034;11.186;2023-03-14T06:32:59;8.57;;;8.18;;
32228;SDS011;18717;48.034;11.186;2023-03-14T06:35:27;9.13;;;8.73;;
32228;SDS011;18717;48.034;11.186;2023-03-14T06:37:54;9.15;;;8.63;;
32228;SDS011;18717;48.034;11.186;2023-03-14T06:40:22;9.55;;;9.02;;
32228;SDS011;18717;48.034;11.186;2023-03-14T06:42:50;8.45;;;8.05;;
32228;SDS011;18717;48.034;11.186;2023-03-14T06:45:19;7.50;;;7.20;;
32228;SDS011;18717;48.034;11.186;2023-03-14T06:47:47;7.40;;;7.10;;
32228;SDS011;18717;48.034;11.186;2023-03-14T06:50:14;7.03;;;6.78;;
32228;SDS011;18717;48.034;11.186;2023-03-14T06:52:42;7.30;;;7.00;;
32228;SDS011;18717;48.034;11.186;2023-03-14T06:55:14;5.68;;;5.38;;
32228;SDS011;18717;48.034;11.186;2023-03-14T06:57:42;7.95;;;7.45;;
32228;SDS011;18717;48.034;11.186;2023-03-14T07:00:10;7.85;;;7.55;;
32228;SDS011;18717;48.034;11.186;2023-03-14T07:02:40;7.72;;;7.35;;
32228;SDS011;18717;48.034;11.186;2023-03-14T07:05:08;6.97;;;6.75;;
32228;SDS011;18717;48.034;11.186;2023-03-14T07:07:37;7.32;;;7.03;;
32228;SDS011;18717;48.034;11.186;2023-03-14T07:10:05;7.18;;;6.88;;
32228;SDS011;18717;48.034;11.186;2023-03-14T07:12:35;8.07;;;7.68;;
32228;SDS011;18717;48.034;11.186;2023-03-14T07:15:03;9.50;;;8.80;;
32228;SDS011;18717;48.034;11.186;2023-03-14T07:17:45;8.90;;;8.40;;
32228;SDS011;18717;48.034;11.186;2023-03-14T07:20:14;7.70;;;7.40;;
32228;SDS011;18717;48.034;11.186;2023-03-14T07:22:42;7.57;;;7.07;;
32228;SDS011;18717;48.034;11.186;2023-03-14T07:25:10;7.53;;;7.22;;
32228;SDS011;18717;48.034;11.186;2023-03-14T07:27:38;7.30;;;7.00;;
32228;SDS011;18717;48.034;11.186;2023-03-14T07:30:06;7.40;;;7.05;;
32228;SDS011;18717;48.034;11.186;2023-03-14T07:32:34;7.50;;;7.20;;
32228;SDS011;18717;48.034;11.186;2023-03-14T07:35:03;7.03;;;6.82;;
32228;SDS011;18717;48.034;11.186;2023-03-14T07:37:32;7.30;;;7.00;;
32228;SDS011;18717;48.034;11.186;2023-03-14T07:39:59;7.53;;;7.22;;
32228;SDS011;18717;48.034;11.186;2023-03-14T07:42:27;7.80;;;7.32;;
32228;SDS011;18717;48.034;11.186;2023-03-14T07:44:55;7.78;;;7.47;;
32228;SDS011;18717;48.034;11.186;2023-03-14T07:47:23;8.18;;;7.82;;
32228;SDS011;18717;48.034;11.186;2023-03-14T07:49:50;7.35;;;6.95;;
32228;SDS011;18717;48.034;11.186;2023-03-14T07:52:19;7.53;;;7.22;;
32228;SDS011;18717;48.034;11.186;2023-03-14T07:54:47;7.70;;;7.30;;
32228;SDS011;18717;48.034;11.186;2023-03-14T07:57:15;8.48;;;7.97;;
32228;SDS011;18717;48.034;11.186;2023-03-14T07:59:42;7.80;;;7.40;;
32228;SDS011;18717;48.034;11.186;2023-03-14T08:02:10;8.15;;;7.75;;
32228;SDS011;18717;48.034;11.186;2023-03-14T08:04:39;7.93;;;7.57;;
32228;SDS011;18717;48.034;11.186;2023-03-14T08:07:07;8.63;;;8.13;;
32228;SDS011;18717;48.034;11.186;2023-03-14T08:09:36;8.75;;;8.32;;
32228;SDS011;18717;48.034;11.186;2023-03-14T08:12:04;7.15;;;6.85;;
32228;SDS011;18717;48.034;11.186;2023-03-14T08:14:32;7.65;;;7.32;;
32228;SDS011;18717;48.034;11.186;2023-03-14T08:17:00;7.63;;;7.32;;
32228;SDS011;18717;48.034;11.186;2023-03-14T08:19:27;8.02;;;7.63;;
32228;SDS011;18717;48.034;11.186;2023-03-14T08:21:55;8.07;;;7.68;;
32228;SDS011;18717;48.034;11.186;2023-03-14T08:24:22;7.93;;;7.63;;
32228;SDS011;18717;48.034;11.186;2023-03-14T08:26:51;8.02;;;7.65;;
32228;SDS011;18717;48.034;11.186;2023-03-14T08:29:19;8.93;;;8.43;;
32228;SDS011;18717;48.034;11.186;2023-03-14T08:31:47;8.20;;;7.78;;
32228;SDS011;18717;48.034;11.186;2023-03-14T08:34:15;7.80;;;7.45;;
32228;SDS011;18717;48.034;11.186;2023-03-14T08:36:43;8.35;;;7.63;;
32228;SDS011;18717;48.034;11.186;2023-03-14T08:39:10;7.80;;;7.47;;
32228;SDS011;18717;48.034;11.186;2023-03-14T08:41:38;8.07;;;7.50;;
32228;SDS011;18717;48.034;11.186;2023-03-14T08:44:10;8.32;;;7.93;;
32228;SDS011;18717;48.034;11.186;2023-03-14T08:46:38;9.75;;;9.15;;
32228;SDS011;18717;48.034;11.186;2023-03-14T08:49:06;8.85;;;8.45;;
32228;SDS011;18717;48.034;11.186;2023-03-14T08:51:34;10.93;;;10.02;;
32228;SDS011;18717;48.034;11.186;2023-03-14T08:54:01;9.50;;;8.88;;
32228;SDS011;18717;48.034;11.186;2023-03-14T08:56:29;8.85;;;8.35;;
32228;SDS011;18717;48.034;11.186;2023-03-14T08:58:57;8.13;;;7.72;;
32228;SDS011;18717;48.034;11.186;2023-03-14T09:01:26;8.18;;;7.88;;
32228;SDS011;18717;48.034;11.186;2023-03-14T09:03:54;8.05;;;7.68;;
32228;SDS011;18717;48.034;11.186;2023-03-14T09:06:22;8.77;;;8.10;;
32228;SDS011;18717;48.034;11.186;2023-03-14T09:08:50;10.23;;;9.43;;
32228;SDS011;18717;48.034;11.186;2023-03-14T09:11:17;9.30;;;8.60;;
32228;SDS011;18717;48.034;11.186;2023-03-14T09:13:45;10.77;;;9.88;;
32228;SDS011;18717;48.034;11.186;2023-03-14T09:16:14;8.73;;;8.27;;
32228;SDS011;18717;48.034;11.186;2023-03-14T09:18:44;8.98;;;8.38;;
32228;SDS011;18717;48.034;11.186;2023-03-14T09:21:11;9.15;;;8.15;;
32228;SDS011;18717;48.034;11.186;2023-03-14T09:23:39;9.43;;;8.93;;
32228;SDS011;18717;48.034;11.186;2023-03-14T09:26:07;8.75;;;8.32;;
32228;SDS011;18717;48.034;11.186;2023-03-14T09:28:35;8.27;;;7.82;;
32228;SDS011;18717;48.034;11.186;2023-03-14T09:31:06;8.20;;;7.65;;
32228;SDS011;18717;48.034;11.186;2023-03-14T09:33:35;7.95;;;7.65;;
32228;SDS011;18717;48.034;11.186;2023-03-14T09:36:04;8.05;;;7.75;;
32228;SDS011;18717;48.034;11.186;2023-03-14T09:38:33;8.13;;;7.72;;
32228;SDS011;18717;48.034;11.186;2023-03-14T09:41:01;8.43;;;8.13;;
32228;SDS011;18717;48.034;11.186;2023-03-14T09:43:31;7.68;;;7.38;;
32228;SDS011;18717;48.034;11.186;2023-03-14T09:46:00;8.90;;;8.35;;
32228;SDS011;18717;48.034;11.186;2023-03-14T09:48:30;8.00;;;7.60;;
32228;SDS011;18717;48.034;11.186;2023-03-14T09:50:59;11.20;;;10.15;;
32228;SDS011;18717;48.034;11.186;2023-03-14T09:53:33;11.43;;;10.52;;
32228;SDS011;18717;48.034;11.186;2023-03-14T09:56:04;11.73;;;10.45;;
32228;SDS011;18717;48.034;11.186;2023-03-14T09:58:37;11.18;;;10.38;;
32228;SDS011;18717;48.034;11.186;2023-03-14T10:01:08;9.15;;;8.75;;
32228;SDS011;18717;48.034;11.186;2023-03-14T10:03:38;8.93;;;8.43;;
32228;SDS011;18717;48.034;11.186;2023-03-14T10:06:09;8.60;;;8.23;;
32228;SDS011;18717;48.034;11.186;2023-03-14T10:08:41;8.63;;;8.13;;
32228;SDS011;18717;48.034;11.186;2023-03-14T10:11:12;9.45;;;9.02;;
32228;SDS011;18717;48.034;11.186;2023-03-14T10:13:49;8.93;;;8.50;;
32228;SDS011;18717;48.034;11.186;2023-03-14T10:16:19;8.85;;;8.55;;
32228;SDS011;18717;48.034;11.186;2023-03-14T10:19:00;9.73;;;9.15;;
32228;SDS011;18717;48.034;11.186;2023-03-14T10:21:30;8.90;;;8.50;;
32228;SDS011;18717;48.034;11.186;2023-03-14T10:24:17;8.75;;;8.35;;
32228;SDS011;18717;48.034;11.186;2023-03-14T10:26:51;9.55;;;9.05;;
32228;SDS011;18717;48.034;11.186;2023-03-14T10:29:20;9.13;;;8.73;;
32228;SDS011;18717;48.034;11.186;2023-03-14T10:31:50;9.77;;;9.13;;
32228;SDS011;18717;48.034;11.186;2023-03-14T10:34:24;9.10;;;8.60;;
32228;SDS011;18717;48.034;11.186;2023-03-14T10:39:27;9.55;;;9.00;;
32228;SDS011;18717;48.034;11.186;2023-03-14T10:42:01;9.70;;;9.20;;
32228;SDS011;18717;48.034;11.186;2023-03-14T10:44:31;9.80;;;9.40;;
32228;SDS011;18717;48.034;11.186;2023-03-14T10:47:00;9.88;;;8.82;;
32228;SDS011;18717;48.034;11.186;2023-03-14T10:49:29;8.88;;;8.57;;
32228;SDS011;18717;48.034;11.186;2023-03-14T10:52:00;8.95;;;8.65;;
32228;SDS011;18717;48.034;11.186;2023-03-14T10:54:30;8.65;;;8.35;;
32228;SDS011;18717;48.034;11.186;2023-03-14T10:56:59;9.02;;;8.73;;
32228;SDS011;18717;48.034;11.186;2023-03-14T10:59:27;9.57;;;9.18;;
32228;SDS011;18717;48.034;11.186;2023-03-14T11:01:58;9.00;;;8.70;;
32228;SDS011;18717;48.034;11.186;2023-03-14T11:04:33;8.93;;;8.63;;
32228;SDS011;18717;48.034;11.186;2023-03-14T11:07:13;9.38;;;8.98;;
32228;SDS011;18717;48.034;11.186;2023-03-14T11:09:44;9.57;;;9.18;;
32228;SDS011;18717;48.034;11.186;2023-03-14T11:12:20;9.13;;;8.82;;
32228;SDS011;18717;48.034;11.186;2023-03-14T11:14:57;9.40;;;9.00;;
32228;SDS011;18717;48.034;11.186;2023-03-14T11:17:30;9.00;;;8.70;;
32228;SDS011;18717;48.034;11.186;2023-03-14T11:20:10;9.75;;;9.18;;
32228;SDS011;18717;48.034;11.186;2023-03-14T11:22:46;9.68;;;9.18;;
32228;SDS011;18717;48.034;11.186;2023-03-14T11:25:20;9.55;;;9.15;;
32228;SDS011;18717;48.034;11.186;2023-03-14T11:27:53;9.23;;;8.90;;
32228;SDS011;18717;48.034;11.186;2023-03-14T11:30:25;9.45;;;9.05;;
32228;SDS011;18717;48.034;11.186;2023-03-14T11:32:59;9.13;;;8.70;;
32228;SDS011;18717;48.034;11.186;2023-03-14T11:35:32;8.93;;;8.52;;
32228;SDS011;18717;48.034;11.186;2023-03-14T11:40:34;9.50;;;9.10;;
32228;SDS011;18717;48.034;11.186;2023-03-14T11:43:05;9.55;;;9.15;;
32228;SDS011;18717;48.034;11.186;2023-03-14T11:45:34;9.15;;;8.85;;
32228;SDS011;18717;48.034;11.186;2023-03-14T11:48:17;9.27;;;8.98;;
32228;SDS011;18717;48.034;11.186;2023-03-14T11:50:50;9.35;;;8.95;;
32228;SDS011;18717;48.034;11.186;2023-03-14T11:53:21;9.27;;;8.88;;
32228;SDS011;18717;48.034;11.186;2023-03-14T11:55:52;8.55;;;8.25;;
32228;SDS011;18717;48.034;11.186;2023-03-14T11:58:20;8.55;;;8.25;;
32228;SDS011;18717;48.034;11.186;2023-03-14T12:00:51;9.05;;;8.70;;
32228;SDS011;18717;48.034;11.186;2023-03-14T12:03:23;8.82;;;8.52;;
32228;SDS011;18717;48.034;11.186;2023-03-14T12:05:56;9.18;;;8.68;;
32228;SDS011;18717;48.034;11.186;2023-03-14T12:08:38;9.18;;;8.88;;
32228;SDS011;18717;48.034;11.186;2023-03-14T12:11:10;8.68;;;8.38;;
32228;SDS011;18717;48.034;11.186;2023-03-14T12:13:40;9.50;;;8.98;;
32228;SDS011;18717;48.034;11.186;2023-03-14T12:16:18;9.52;;;9.15;;
32228;SDS011;18717;48.034;11.186;2023-03-14T12:18:54;9.13;;;8.70;;
32228;SDS011;18717;48.034;11.186;2023-03-14T12:21:23;9.15;;;8.85;;
32228;SDS011;18717;48.034;11.186;2023-03-14T12:24:15;8.88;;;8.57;;
32228;SDS011;18717;48.034;11.186;2023-03-14T12:26:49;9.35;;;8.85;;
32228;SDS011;18717;48.034;11.186;2023-03-14T12:29:19;9.35;;;8.95;;
32228;SDS011;18717;48.034;11.186;2023-03-14T12:31:47;8.45;;;8.15;;
32228;SDS011;18717;48.034;11.186;2023-03-14T12:34:26;9.07;;;8.60;;
32228;SDS011;18717;48.034;11.186;2023-03-14T12:39:56;8.80;;;8.50;;
32228;SDS011;18717;48.034;11.186;2023-03-14T12:42:40;8.52;;;8.23;;
32228;SDS011;18717;48.034;11.186;2023-03-14T12:50:44;8.60;;;8.30;;
32228;SDS011;18717;48.034;11.186;2023-03-14T12:53:20;8.95;;;8.55;;
32228;SDS011;18717;48.034;11.186;2023-03-14T12:56:14;9.07;;;8.77;;
32228;SDS011;18717;48.034;11.186;2023-03-14T12:58:54;8.88;;;8.57;;
32228;SDS011;18717;48.034;11.186;2023-03-14T13:01:27;8.90;;;8.60;;
32228;SDS011;18717;48.034;11.186;2023-03-14T13:03:56;9.20;;;8.90;;
32228;SDS011;18717;48.034;11.186;2023-03-14T13:12:30;8.68;;;8.38;;
32228;SDS011;18717;48.034;11.186;2023-03-14T13:15:14;8.40;;;8.10;;
32228;SDS011;18717;48.034;11.186;2023-03-14T13:17:46;8.63;;;8.25;;
32228;SDS011;18717;48.034;11.186;2023-03-14T13:20:15;8.30;;;8.00;;
32228;SDS011;18717;48.034;11.186;2023-03-14T13:22:48;8.75;;;8.45;;
32228;SDS011;18717;48.034;11.186;2023-03-14T13:25:17;8.18;;;7.88;;
32228;SDS011;18717;48.034;11.186;2023-03-14T13:27:47;8.10;;;7.80;;
32228;SDS011;18717;48.034;11.186;2023-03-14T13:30:17;8.55;;;8.25;;
32228;SDS011;18717;48.034;11.186;2023-03-14T13:32:48;7.90;;;7.60;;
32228;SDS011;18717;48.034;11.186;2023-03-14T13:35:18;8.18;;;7.88;;
32228;SDS011;18717;48.034;11.186;2023-03-14T13:37:51;8.75;;;8.35;;
32228;SDS011;18717;48.034;11.186;2023-03-14T13:40:35;8.05;;;7.75;;
32228;SDS011;18717;48.034;11.186;2023-03-14T13:43:04;8.27;;;7.97;;
32228;SDS011;18717;48.034;11.186;2023-03-14T13:45:45;8.10;;;7.63;;
32228;SDS011;18717;48.034;11.186;2023-03-14T13:48:16;8.40;;;8.10;;
32228;SDS011;18717;48.034;11.186;2023-03-14T13:50:45;8.10;;;7.70;;
32228;SDS011;18717;48.034;11.186;2023-03-14T13:53:14;8.70;;;8.20;;
32228;SDS011;18717;48.034;11.186;2023-03-14T13:55:41;8.32;;;7.93;;
32228;SDS011;18717;48.034;11.186;2023-03-14T13:58:11;7.78;;;7.47;;
32228;SDS011;18717;48.034;11.186;2023-03-14T14:00:54;7.85;;;7.55;;
32228;SDS011;18717;48.034;11.186;2023-03-14T14:03:26;7.72;;;7.43;;
32228;SDS011;18717;48.034;11.186;2023-03-14T14:05:55;7.53;;;7.22;;
32228;SDS011;18717;48.034;11.186;2023-03-14T14:08:24;7.45;;;7.18;;
32228;SDS011;18717;48.034;11.186;2023-03-14T14:10:54;7.25;;;6.95;;
32228;SDS011;18717;48.034;11.186;2023-03-14T14:13:24;7.47;;;7.18;;
32228;SDS011;18717;48.034;11.186;2023-03-14T14:15:54;7.63;;;7.20;;
32228;SDS011;18717;48.034;11.186;2023-03-14T14:18:23;7.20;;;7.00;;
32228;SDS011;18717;48.034;11.186;2023-03-14T14:20:53;7.03;;;6.70;;
32228;SDS011;18717;48.034;11.186;2023-03-14T14:23:21;7.43;;;7.13;;
32228;SDS011;18717;48.034;11.186;2023-03-14T14:25:52;7.25;;;6.97;;
32228;SDS011;18717;48.034;11.186;2023-03-14T14:28:23;7.20;;;7.00;;
32228;SDS011;18717;48.034;11.186;2023-03-14T14:31:16;7.72;;;7.43;;
32228;SDS011;18717;48.034;11.186;2023-03-14T14:33:46;7.65;;;7.35;;
32228;SDS011;18717;48.034;11.186;2023-03-14T14:36:22;7.10;;;6.90;;
32228;SDS011;18717;48.034;11.186;2023-03-14T14:38:51;7.82;;;7.53;;
32228;SDS011;18717;48.034;11.186;2023-03-14T14:41:20;7.85;;;7.43;;
32228;SDS011;18717;48.034;11.186;2023-03-14T14:43:48;7.28;;;7.07;;
32228;SDS011;18717;48.034;11.186;2023-03-14T14:46:18;7.35;;;7.10;;
32228;SDS011;18717;48.034;11.186;2023-03-14T14:48:46;7.55;;;7.25;;
32228;SDS011;18717;48.034;11.186;2023-03-14T14:51:25;7.40;;;7.00;;
32228;SDS011;18717;48.034;11.186;2023-03-14T14:56:40;7.45;;;7.15;;
32228;SDS011;18717;48.034;11.186;2023-03-14T14:59:24;7.45;;;7.15;;
32228;SDS011;18717;48.034;11.186;2023-03-14T15:01:58;6.63;;;6.43;;
32228;SDS011;18717;48.034;11.186;2023-03-14T15:04:27;7.30;;;7.00;;
32228;SDS011;18717;48.034;11.186;2023-03-14T15:06:57;7.30;;;7.05;;
32228;SDS011;18717;48.034;11.186;2023-03-14T15:09:25;6.60;;;6.40;;
32228;SDS011;18717;48.034;11.186;2023-03-14T15:11:53;7.38;;;6.97;;